createdAt,value
2022-09-04T00:02:09.665Z,98.85
2022-09-04T00:05:24.016Z,99.22
2022-09-04T00:08:44.604Z,99.30
2022-09-04T00:11:58.318Z,98.97
2022-09-04T00:15:09.992Z,98.70
2022-09-04T00:18:23.397Z,98.61
2022-09-04T00:21:35.635Z,98.41
2022-09-04T00:24:45.037Z,98.66
2022-09-04T00:27:56.505Z,98.75
2022-09-04T00:31:10.540Z,98.77
2022-09-04T00:34:26.235Z,98.65
2022-09-04T00:37:36.866Z,98.54
2022-09-04T00:40:45.181Z,98.85
2022-09-04T00:44:12.343Z,97.96
2022-09-04T00:47:51.927Z,97.87
2022-09-04T00:51:17.409Z,97.80
2022-09-04T00:55:06.283Z,98.27
2022-09-04T00:58:48.717Z,98.22
2022-09-04T01:01:57.272Z,98.69
2022-09-04T01:05:07.356Z,98.74
2022-09-04T01:08:29.092Z,98.32
2022-09-04T01:11:41.564Z,98.65
2022-09-04T01:14:53.165Z,98.70
2022-09-04T01:18:05.136Z,99.27
2022-09-04T01:21:20.209Z,98.91
2022-09-04T01:24:40.214Z,99.05
2022-09-04T01:27:51.695Z,98.98
2022-09-04T01:31:02.142Z,99.02
2022-09-04T01:34:20.085Z,98.69
2022-09-04T01:37:38.545Z,98.35
2022-09-04T01:40:46.183Z,98.45
2022-09-04T01:43:52.005Z,98.29
2022-09-04T01:47:04.450Z,98.12
2022-09-04T01:50:12.849Z,98.30
2022-09-04T01:53:22.431Z,98.42
2022-09-04T01:56:35.100Z,98.17
2022-09-04T01:59:53.449Z,98.33
2022-09-04T02:03:03.702Z,98.59
2022-09-04T02:06:24.523Z,98.12
2022-09-04T02:09:36.716Z,98.23
2022-09-04T02:12:47.821Z,98.30
2022-09-04T02:16:06.158Z,97.75
2022-09-04T02:19:26.607Z,97.61
2022-09-04T02:22:39.905Z,97.46
2022-09-04T02:25:48.862Z,97.02
2022-09-04T02:28:59.995Z,97.13
2022-09-04T02:32:09.746Z,96.96
2022-09-04T02:35:21.046Z,97.05
2022-09-04T02:38:33.418Z,97.37
2022-09-04T02:41:50.754Z,97.16
2022-09-04T02:45:09.441Z,97.00
2022-09-04T02:48:21.928Z,96.83
2022-09-04T02:51:41.102Z,96.31
2022-09-04T02:54:59.050Z,96.23
2022-09-04T02:58:14.739Z,96.78
2022-09-04T03:01:24.935Z,96.74
2022-09-04T03:04:41.200Z,96.83
2022-09-04T03:07:50.378Z,96.81
2022-09-04T03:10:59.794Z,96.61
2022-09-04T03:14:09.791Z,97.04
2022-09-04T03:17:19.281Z,97.08
2022-09-04T03:20:26.585Z,97.07
2022-09-04T03:23:40.410Z,96.43
2022-09-04T03:26:46.987Z,96.51
2022-09-04T03:29:56.577Z,96.86
2022-09-04T03:33:05.020Z,96.72
2022-09-04T03:36:16.363Z,96.62
2022-09-04T03:39:27.629Z,96.44
2022-09-04T03:42:39.459Z,96.47
2022-09-04T03:45:55.109Z,96.86
2022-09-04T03:49:09.041Z,96.52
2022-09-04T03:52:25.227Z,96.40
2022-09-04T03:55:56.554Z,96.64
2022-09-04T03:59:05.526Z,96.54
2022-09-04T04:02:16.565Z,96.32
2022-09-04T04:05:29.580Z,96.21
2022-09-04T04:08:51.133Z,96.27
2022-09-04T04:12:19.778Z,95.66
2022-09-04T04:15:32.886Z,95.79
2022-09-04T04:18:53.087Z,96.26
2022-09-04T04:22:10.062Z,95.50
2022-09-04T04:25:25.100Z,95.36
2022-09-04T04:29:08.579Z,95.74
2022-09-04T04:32:29.754Z,95.88
2022-09-04T04:35:42.437Z,96.10
2022-09-04T04:38:58.857Z,95.99
2022-09-04T04:42:18.492Z,96.20
2022-09-04T04:45:46.772Z,96.20
2022-09-04T04:49:23.636Z,96.12
2022-09-04T04:52:33.821Z,96.23
2022-09-04T04:55:43.009Z,96.26
2022-09-04T04:58:59.281Z,96.25
2022-09-04T05:02:10.862Z,95.95
2022-09-04T05:05:19.495Z,96.38
2022-09-04T05:08:33.352Z,96.73
2022-09-04T05:11:43.820Z,96.44
2022-09-04T05:14:56.306Z,96.25
2022-09-04T05:18:04.616Z,96.28
2022-09-04T05:21:13.694Z,96.76
2022-09-04T05:24:23.612Z,96.85
2022-09-04T05:27:49.545Z,97.03
2022-09-04T05:31:00.352Z,97.26
2022-09-04T05:34:08.593Z,97.29
2022-09-04T05:37:16.952Z,97.53
2022-09-04T05:40:28.630Z,97.63
2022-09-04T05:43:43.820Z,97.96
2022-09-04T05:47:04.297Z,98.26
2022-09-04T05:50:29.163Z,98.32
2022-09-04T05:54:13.648Z,98.83
2022-09-04T05:57:32.363Z,98.85
2022-09-04T06:00:52.165Z,99.29
2022-09-04T06:04:24.174Z,99.36
2022-09-04T06:07:33.610Z,99.24
2022-09-04T06:10:54.490Z,99.41
2022-09-04T06:14:10.146Z,99.14
2022-09-04T06:17:30.906Z,99.16
2022-09-04T06:20:53.326Z,98.57
2022-09-04T06:24:27.247Z,98.51
2022-09-04T06:27:50.602Z,98.16
2022-09-04T06:31:06.919Z,97.59
2022-09-04T06:34:27.628Z,97.11
2022-09-04T06:37:44.134Z,96.38
2022-09-04T06:41:00.927Z,95.94
2022-09-04T06:44:16.913Z,93.69
2022-09-04T06:47:27.607Z,88.02
2022-09-04T06:50:42.419Z,80.75
2022-09-04T06:54:00.654Z,73.75
2022-09-04T06:57:31.382Z,70.59
2022-09-04T07:00:43.970Z,66.90
2022-09-04T07:04:04.449Z,63.58
2022-09-04T07:07:19.451Z,61.21
2022-09-04T07:10:30.298Z,61.38
2022-09-04T07:13:48.884Z,62.98
2022-09-04T07:17:06.332Z,64.78
2022-09-04T07:20:22.658Z,68.21
2022-09-04T07:23:38.866Z,70.41
2022-09-04T07:26:54.310Z,70.68
2022-09-04T07:30:05.714Z,72.51
2022-09-04T07:33:19.014Z,75.27
2022-09-04T07:36:33.979Z,74.40
2022-09-04T07:39:45.796Z,75.38
2022-09-04T07:42:58.591Z,76.92
2022-09-04T07:46:10.490Z,78.76
2022-09-04T07:49:23.266Z,79.09
2022-09-04T07:53:02.571Z,78.98
2022-09-04T07:56:18.257Z,76.49
2022-09-04T07:59:51.742Z,76.93
2022-09-04T08:03:31.383Z,76.99
2022-09-04T08:06:42.407Z,73.57
2022-09-04T08:10:06.080Z,74.76
2022-09-04T08:13:30.145Z,74.39
2022-09-04T08:16:44.989Z,71.17
2022-09-04T08:20:01.321Z,69.61
2022-09-04T08:23:25.149Z,67.00
2022-09-04T08:26:38.321Z,66.44
2022-09-04T08:30:04.517Z,67.06
2022-09-04T08:33:45.438Z,65.68
2022-09-04T08:37:02.039Z,64.92
2022-09-04T08:40:35.167Z,64.52
2022-09-04T08:44:22.548Z,66.42
2022-09-04T08:47:57.238Z,63.64
2022-09-04T08:51:40.940Z,63.18
2022-09-04T08:55:04.184Z,61.96
2022-09-04T08:58:34.289Z,62.66
2022-09-04T09:02:21.190Z,59.86
2022-09-04T09:05:58.988Z,61.35
2022-09-04T09:09:35.154Z,59.56
2022-09-04T09:13:17.399Z,59.39
2022-09-04T09:16:26.501Z,58.36
2022-09-04T09:19:46.283Z,58.29
2022-09-04T09:23:18.396Z,58.73
2022-09-04T09:26:29.632Z,59.48
2022-09-04T09:29:59.683Z,60.93
2022-09-04T09:33:43.381Z,60.08
2022-09-04T09:37:26.273Z,58.23
2022-09-04T09:41:12.107Z,59.35
2022-09-04T09:44:37.777Z,54.47
2022-09-04T09:48:11.554Z,52.61
2022-09-04T09:51:45.851Z,54.49
2022-09-04T09:55:25.441Z,56.67
2022-09-04T09:59:17.402Z,56.25
2022-09-04T10:03:17.910Z,54.67
2022-09-04T10:06:54.966Z,54.18
2022-09-04T10:10:31.415Z,53.08
2022-09-04T10:14:05.568Z,52.45
2022-09-04T10:17:37.259Z,51.62
2022-09-04T10:21:26.481Z,53.33
2022-09-04T10:25:03.660Z,53.74
2022-09-04T10:28:47.838Z,56.53
2022-09-04T10:32:33.368Z,56.67
2022-09-04T10:35:49.908Z,56.98
2022-09-04T10:39:26.592Z,54.78
2022-09-04T10:42:47.086Z,54.12
2022-09-04T10:46:06.599Z,49.20
2022-09-04T10:49:30.883Z,47.86
2022-09-04T10:53:21.088Z,47.29
2022-09-04T10:56:30.480Z,47.29
2022-09-04T11:00:07.244Z,46.95
2022-09-04T11:03:43.870Z,45.83
2022-09-04T11:07:19.017Z,45.20
2022-09-04T11:10:33.702Z,45.05
2022-09-04T11:14:20.586Z,44.12
2022-09-04T11:18:07.694Z,46.19
2022-09-04T11:21:55.006Z,45.79
2022-09-04T11:25:23.253Z,44.88
2022-09-04T11:29:04.069Z,43.75
2022-09-04T11:32:23.104Z,44.32
2022-09-04T11:36:12.200Z,44.68
2022-09-04T11:39:49.893Z,44.37
2022-09-04T11:43:23.186Z,43.11
2022-09-04T11:46:50.164Z,42.94
2022-09-04T11:50:16.919Z,43.78
2022-09-04T11:53:52.626Z,43.21
2022-09-04T11:57:08.148Z,42.00
2022-09-04T12:00:14.149Z,42.58
2022-09-04T12:03:49.392Z,43.12
2022-09-04T12:07:12.370Z,45.23
2022-09-04T12:10:29.393Z,46.53
2022-09-04T12:13:52.704Z,45.43
2022-09-04T12:17:37.921Z,45.79
2022-09-04T12:21:19.389Z,45.60
2022-09-04T12:24:48.248Z,45.13
2022-09-04T12:28:19.012Z,46.75
2022-09-04T12:31:54.401Z,44.84
2022-09-04T12:35:31.625Z,44.68
2022-09-04T12:39:11.813Z,44.50
2022-09-04T12:42:21.529Z,44.62
2022-09-04T12:45:31.144Z,44.97
2022-09-04T12:48:43.885Z,45.51
2022-09-04T12:51:54.033Z,44.35
2022-09-04T12:55:07.595Z,41.25
2022-09-04T12:58:26.897Z,39.37
2022-09-04T13:01:42.509Z,39.26
2022-09-04T13:04:57.331Z,39.76
2022-09-04T13:08:11.553Z,37.98
2022-09-04T13:11:28.625Z,38.71
2022-09-04T13:14:51.582Z,37.84
2022-09-04T13:18:03.868Z,38.10
2022-09-04T13:21:23.327Z,39.08
2022-09-04T13:24:44.486Z,37.61
2022-09-04T13:28:03.200Z,38.72
2022-09-04T13:31:33.297Z,39.03
2022-09-04T13:34:50.184Z,39.48
2022-09-04T13:38:12.527Z,39.00
2022-09-04T13:41:34.177Z,37.88
2022-09-04T13:44:57.361Z,37.57
2022-09-04T13:48:06.070Z,37.50
2022-09-04T13:51:14.170Z,37.11
2022-09-04T13:54:24.832Z,37.92
2022-09-04T13:57:31.033Z,38.45
2022-09-04T14:00:37.705Z,38.44
2022-09-04T14:03:45.151Z,36.21
2022-09-04T14:06:49.129Z,36.87
2022-09-04T14:09:57.541Z,36.32
2022-09-04T14:13:11.232Z,37.04
2022-09-04T14:16:15.844Z,37.43
2022-09-04T14:19:32.551Z,37.85
2022-09-04T14:22:46.057Z,36.61
2022-09-04T14:25:58.010Z,37.36
2022-09-04T14:29:08.922Z,37.66
2022-09-04T14:32:23.266Z,37.38
2022-09-04T14:35:35.282Z,36.19
2022-09-04T14:39:06.534Z,36.15
2022-09-04T14:42:25.622Z,36.28
2022-09-04T14:46:02.585Z,35.68
2022-09-04T14:49:09.382Z,36.08
2022-09-04T14:52:19.618Z,36.47
2022-09-04T14:55:26.934Z,36.29
2022-09-04T14:58:36.734Z,36.44
2022-09-04T15:01:59.948Z,36.74
2022-09-04T15:05:08.519Z,36.40
2022-09-04T15:08:12.896Z,37.11
2022-09-04T15:11:31.453Z,37.03
2022-09-04T15:14:39.234Z,36.12
2022-09-04T15:17:51.555Z,36.61
2022-09-04T15:20:58.491Z,37.70
2022-09-04T15:24:11.038Z,36.72
2022-09-04T15:27:19.935Z,38.18
2022-09-04T15:30:25.558Z,36.63
2022-09-04T15:33:28.354Z,37.50
2022-09-04T15:36:32.080Z,38.61
2022-09-04T15:39:44.428Z,38.66
2022-09-04T15:42:58.740Z,37.72
2022-09-04T15:46:09.389Z,38.16
2022-09-04T15:49:31.262Z,38.60
2022-09-04T15:52:42.449Z,39.28
2022-09-04T15:55:46.909Z,38.79
2022-09-04T15:58:56.129Z,40.19
2022-09-04T16:02:12.561Z,40.18
2022-09-04T16:05:23.610Z,40.08
2022-09-04T16:08:33.447Z,39.95
2022-09-04T16:11:41.507Z,41.11
2022-09-04T16:14:48.314Z,40.04
2022-09-04T16:17:54.998Z,39.80
2022-09-04T16:21:01.020Z,40.66
2022-09-04T16:24:09.882Z,41.75
2022-09-04T16:27:16.585Z,40.95
2022-09-04T16:30:32.933Z,39.76
2022-09-04T16:33:47.046Z,39.89
2022-09-04T16:36:58.487Z,40.59
2022-09-04T16:40:12.809Z,41.31
2022-09-04T16:43:24.797Z,42.47
2022-09-04T16:46:31.171Z,43.56
2022-09-04T16:49:47.133Z,44.33
2022-09-04T16:53:12.888Z,45.48
2022-09-04T16:56:26.222Z,47.81
2022-09-04T16:59:39.315Z,50.18
2022-09-04T17:02:48.847Z,50.37
2022-09-04T17:05:59.568Z,49.84
2022-09-04T17:09:08.239Z,52.50
2022-09-04T17:12:34.991Z,52.69
2022-09-04T17:15:53.297Z,53.60
2022-09-04T17:18:56.849Z,54.72
2022-09-04T17:29:00.322Z,54.99
2022-09-04T17:29:10.105Z,56.04
2022-09-04T17:29:41.648Z,55.84
2022-09-04T17:38:53.748Z,56.07
2022-09-04T17:40:35.700Z,56.64
2022-09-04T17:40:56.732Z,57.60
2022-09-04T17:43:32.885Z,57.69
2022-09-04T17:46:38.921Z,59.07
2022-09-04T17:49:52.766Z,59.47
2022-09-04T17:53:03.198Z,58.82
2022-09-04T17:56:21.479Z,59.01
2022-09-04T17:59:35.446Z,59.48
2022-09-04T18:02:52.647Z,59.08
2022-09-04T18:06:05.037Z,60.44
2022-09-04T18:09:26.544Z,60.01
2022-09-04T18:12:47.995Z,60.18
2022-09-04T18:16:04.013Z,60.67
2022-09-04T18:19:23.480Z,60.81
2022-09-04T18:22:36.195Z,61.53
2022-09-04T18:25:52.018Z,61.72
2022-09-04T18:29:55.151Z,62.69
2022-09-04T18:37:13.274Z,63.72
2022-09-04T18:37:24.422Z,64.17
2022-09-04T18:40:04.628Z,63.64
2022-09-04T18:48:52.788Z,64.99
2022-09-04T18:50:34.464Z,65.39
2022-09-04T18:54:18.964Z,65.86
2022-09-04T18:57:43.663Z,65.78
2022-09-04T19:01:03.372Z,65.51
2022-09-04T19:04:45.902Z,66.19
2022-09-04T19:08:04.476Z,66.27
2022-09-04T19:11:30.482Z,66.54
2022-09-04T19:14:50.798Z,66.62
2022-09-04T19:18:10.539Z,67.27
2022-09-04T19:21:58.191Z,67.20
2022-09-04T19:25:18.964Z,67.25
2022-09-04T19:28:40.416Z,67.33
2022-09-04T19:32:06.000Z,67.47
2022-09-04T19:35:18.672Z,68.41
2022-09-04T19:42:07.517Z,68.07
2022-09-04T19:46:19.488Z,69.20
2022-09-04T19:46:26.041Z,69.18
2022-09-04T19:52:05.001Z,69.18
2022-09-04T19:53:30.090Z,69.63
2022-09-04T19:56:36.664Z,69.71
2022-09-04T20:00:33.678Z,70.36
2022-09-04T20:03:41.548Z,70.95
2022-09-04T20:06:52.201Z,70.48
2022-09-04T20:10:04.269Z,70.25
2022-09-04T20:13:27.872Z,71.12
2022-09-04T20:16:39.744Z,71.85
2022-09-04T20:20:05.161Z,71.89
2022-09-04T20:30:34.013Z,72.44
2022-09-04T20:33:45.249Z,71.36
2022-09-04T20:36:57.897Z,72.33
2022-09-04T20:40:35.957Z,72.51
2022-09-04T20:43:55.259Z,73.01
2022-09-04T20:52:44.598Z,72.89
2022-09-04T20:52:59.379Z,73.12
2022-09-04T20:55:01.912Z,73.21
2022-09-04T21:02:37.854Z,73.25
2022-09-04T21:03:19.733Z,74.49
2022-09-04T21:06:11.176Z,74.81
2022-09-04T21:09:33.298Z,74.05
2022-09-04T21:13:14.107Z,74.69
2022-09-04T21:16:35.075Z,75.46
2022-09-04T21:20:32.805Z,76.16
2022-09-04T21:28:01.401Z,76.05
2022-09-04T21:31:20.025Z,76.02
2022-09-04T21:34:45.539Z,76.83
2022-09-04T21:38:07.024Z,77.27
2022-09-04T21:41:28.451Z,77.16
2022-09-04T21:45:16.402Z,77.35
2022-09-04T21:48:41.476Z,78.04
2022-09-04T21:52:12.343Z,78.09
2022-09-04T22:00:16.128Z,78.23
2022-09-04T22:02:42.248Z,78.13
2022-09-04T22:03:02.596Z,78.51
2022-09-04T22:06:42.496Z,78.42
2022-09-04T22:13:42.610Z,78.68
2022-09-04T22:14:00.063Z,78.77
2022-09-04T22:17:26.293Z,79.27
2022-09-04T22:21:00.077Z,79.04
2022-09-04T22:24:45.641Z,79.40
2022-09-04T22:28:22.774Z,79.48
2022-09-04T22:32:02.281Z,79.36
2022-09-04T22:35:48.655Z,80.05
2022-09-04T22:39:50.243Z,80.55
2022-09-04T22:43:12.073Z,80.55
2022-09-04T22:50:21.698Z,80.15
2022-09-04T22:54:09.290Z,80.18
2022-09-04T22:57:20.259Z,80.45
2022-09-04T23:00:28.164Z,80.66
2022-09-04T23:03:55.893Z,80.82
2022-09-04T23:13:45.006Z,80.79
2022-09-04T23:13:59.032Z,81.37
2022-09-04T23:14:43.834Z,81.21
2022-09-04T23:19:53.989Z,81.55
2022-09-04T23:26:35.967Z,81.66
2022-09-04T23:26:48.000Z,81.74
2022-09-04T23:29:20.778Z,81.77
2022-09-04T23:33:00.567Z,82.11
2022-09-04T23:36:21.390Z,81.66
2022-09-04T23:39:49.712Z,81.65
2022-09-04T23:43:20.195Z,82.42
2022-09-04T23:46:42.422Z,82.71
2022-09-04T23:50:00.245Z,82.43
2022-09-04T23:53:13.005Z,82.42
2022-09-04T23:56:23.723Z,82.43
2022-09-04T23:59:38.041Z,82.98
